Terminal Aerodrome Forecast
Issued by NWS Hastings, NE

Home | Current Version | Previous Version | Text Only | Print | Product List | Glossary On
Versions: 1 2 3 4 5 6 7 8 9 10 11 12 13 14 15 16 17 18 19
000
FTUS45 KGID 230249 AAA
TAFEAR
TAF AMD
KEAR 230249Z 2303/2324 13010KT P6SM BKN004 OVC040
     FM230400 13010KT 5SM -DZ BR BKN004 OVC040
      AMD LTD TO CLD VIS AND WIND=

USA.gov is the U.S. government's official web portal to all federal, state and local government web resources and services.